Time;durP1;ratioP1;P1;durP2;ratioP2;P2;SDS_P1;SDS_P2;PMS_P1;PMS_P2;Temp;Humidity;BMP_temperature;BMP_pressure;BME280_temperature;BME280_humidity;BME280_pressure;Samples;Min_cycle;Max_cycle;Signal;HPM_P1;HPM_P2
2023/10/26 00:00:25;;;;;;;2.53;1.07;;;12.00;82.70;;;;;;4993313;28;20186;-68
2023/10/26 00:02:51;;;;;;;1.13;0.80;;;12.00;82.70;;;;;;4991777;28;20305;-69
2023/10/26 00:05:17;;;;;;;4.90;1.63;;;12.10;82.70;;;;;;4990392;28;20197;-67
2023/10/26 00:07:43;;;;;;;1.87;1.27;;;12.10;82.70;;;;;;4988773;28;20509;-69
2023/10/26 00:10:09;;;;;;;4.50;1.43;;;12.10;82.50;;;;;;4992553;28;20191;-67
2023/10/26 00:12:34;;;;;;;1.43;1.30;;;12.20;82.50;;;;;;4992394;28;20646;-69
2023/10/26 00:15:00;;;;;;;1.97;1.30;;;12.20;82.20;;;;;;4991083;28;20187;-69
2023/10/26 00:17:26;;;;;;;2.23;1.10;;;12.10;82.50;;;;;;4990315;28;20197;-69
2023/10/26 00:19:52;;;;;;;2.00;1.57;;;12.10;82.80;;;;;;4996060;28;20422;-68
2023/10/26 00:22:18;;;;;;;4.77;1.40;;;12.00;83.00;;;;;;4998312;28;20337;-68
2023/10/26 00:24:44;;;;;;;2.73;1.50;;;12.00;83.10;;;;;;4996831;28;20456;-68
2023/10/26 00:27:09;;;;;;;2.63;1.00;;;12.00;83.30;;;;;;4990085;28;20469;-69
2023/10/26 00:29:35;;;;;;;2.10;1.30;;;12.00;83.30;;;;;;4997248;28;20194;-68
2023/10/26 00:32:01;;;;;;;3.53;1.40;;;12.00;83.30;;;;;;4992818;28;20644;-69
2023/10/26 00:34:26;;;;;;;1.63;1.00;;;11.90;83.40;;;;;;4989119;28;20194;-69
2023/10/26 00:36:52;;;;;;;3.40;1.30;;;11.90;83.40;;;;;;4989429;28;20687;-69
2023/10/26 00:39:17;;;;;;;2.17;1.10;;;11.90;83.60;;;;;;4993178;28;20569;-68
2023/10/26 00:41:43;;;;;;;1.30;1.10;;;12.00;83.60;;;;;;4987877;28;20179;-69
2023/10/26 00:44:08;;;;;;;1.40;1.10;;;11.90;83.40;;;;;;4996654;28;20682;-68
2023/10/26 00:46:35;;;;;;;2.30;1.20;;;11.90;83.40;;;;;;4986701;28;20905;-69
2023/10/26 00:49:01;;;;;;;4.40;1.50;;;11.90;83.70;;;;;;4992615;28;20208;-69
2023/10/26 00:51:27;;;;;;;4.90;1.10;;;11.90;83.60;;;;;;4990732;28;20422;-69
2023/10/26 00:53:53;;;;;;;3.17;1.10;;;11.90;83.40;;;;;;4988002;28;20484;-68
2023/10/26 00:56:21;;;;;;;1.50;1.13;;;11.90;83.60;;;;;;4979455;28;20464;-69
2023/10/26 00:58:47;;;;;;;3.43;1.13;;;11.80;83.40;;;;;;4987674;28;20190;-69
2023/10/26 01:01:16;;;;;;;1.70;1.03;;;11.80;83.60;;;;;;4987796;28;20418;-69
2023/10/26 01:03:45;;;;;;;2.30;1.27;;;11.90;83.40;;;;;;4988187;28;20592;-69
2023/10/26 01:06:11;;;;;;;1.40;1.23;;;12.00;83.30;;;;;;4983138;28;20517;-68
2023/10/26 01:08:36;;;;;;;6.10;1.30;;;12.00;83.00;;;;;;4991168;28;20449;-69
2023/10/26 01:11:02;;;;;;;1.50;1.20;;;12.00;82.70;;;;;;4990935;28;20190;-69
2023/10/26 01:13:30;;;;;;;2.17;1.10;;;12.00;82.50;;;;;;4995574;28;20196;-70
2023/10/26 01:15:56;;;;;;;1.43;1.20;;;12.10;82.40;;;;;;4983744;28;21215;-69
2023/10/26 01:18:22;;;;;;;2.07;1.43;;;12.00;82.10;;;;;;4990880;28;20418;-70
2023/10/26 01:20:47;;;;;;;1.70;1.30;;;12.10;81.90;;;;;;4990601;28;21004;-68
2023/10/26 01:23:13;;;;;;;2.37;1.30;;;12.10;81.70;;;;;;4992546;28;20226;-69
2023/10/26 01:25:39;;;;;;;4.10;1.77;;;12.00;81.50;;;;;;4989973;28;20237;-67
2023/10/26 01:28:07;;;;;;;2.70;1.10;;;12.20;81.10;;;;;;4992076;28;20297;-70
2023/10/26 01:30:32;;;;;;;2.30;1.07;;;12.20;80.50;;;;;;4991693;28;20480;-68
2023/10/26 01:32:58;;;;;;;2.00;1.00;;;12.20;80.30;;;;;;4991574;28;20430;-68
2023/10/26 01:35:24;;;;;;;2.17;1.00;;;12.20;80.00;;;;;;4987311;28;20928;-70
2023/10/26 01:37:49;;;;;;;2.70;1.30;;;12.30;80.00;;;;;;4987459;28;20224;-68
2023/10/26 01:40:15;;;;;;;1.90;1.00;;;12.30;79.90;;;;;;4992496;28;20198;-68
2023/10/26 01:42:40;;;;;;;1.27;0.90;;;12.20;79.70;;;;;;4989758;28;20309;-68
2023/10/26 01:45:06;;;;;;;1.53;1.23;;;12.20;79.60;;;;;;4989400;28;20302;-67
2023/10/26 01:47:32;;;;;;;1.37;0.80;;;12.20;79.70;;;;;;4987151;28;20191;-68
2023/10/26 01:49:59;;;;;;;1.77;1.20;;;12.20;79.60;;;;;;4983744;28;21758;-68
2023/10/26 01:52:25;;;;;;;1.50;1.00;;;12.20;79.50;;;;;;4989545;28;20655;-67
2023/10/26 01:54:50;;;;;;;1.37;1.00;;;12.30;79.20;;;;;;4989180;28;20544;-68
2023/10/26 01:57:16;;;;;;;1.43;1.10;;;12.20;79.30;;;;;;4987436;28;20305;-68
2023/10/26 01:59:42;;;;;;;2.20;1.57;;;12.20;79.20;;;;;;4990406;28;20197;-68
2023/10/26 02:02:08;;;;;;;2.57;1.30;;;12.20;79.20;;;;;;4986864;28;20465;-69
2023/10/26 02:04:33;;;;;;;1.23;0.83;;;12.20;79.20;;;;;;4996532;28;20249;-68
2023/10/26 02:06:59;;;;;;;1.50;0.80;;;12.20;79.30;;;;;;4990457;28;20714;-68
2023/10/26 02:09:24;;;;;;;2.40;1.07;;;12.20;79.20;;;;;;4995115;28;20186;-69
2023/10/26 02:11:50;;;;;;;3.07;1.30;;;12.20;79.00;;;;;;4993935;28;20988;-67
2023/10/26 02:14:15;;;;;;;1.47;0.97;;;12.20;79.00;;;;;;4994927;28;20236;-70
2023/10/26 02:16:41;;;;;;;2.93;0.90;;;12.20;78.90;;;;;;4987945;28;20225;-69
2023/10/26 02:19:07;;;;;;;1.50;1.13;;;12.20;78.60;;;;;;4996472;28;20191;-70
2023/10/26 02:21:34;;;;;;;4.27;1.20;;;12.20;78.70;;;;;;4995370;28;20182;-68
2023/10/26 02:23:59;;;;;;;2.70;1.40;;;12.20;78.90;;;;;;4995464;28;20547;-68
2023/10/26 02:26:25;;;;;;;2.67;1.03;;;12.10;79.90;;;;;;4987529;28;20557;-68
2023/10/26 02:28:51;;;;;;;1.57;1.00;;;11.90;80.20;;;;;;4992019;28;20194;-68
2023/10/26 02:31:16;;;;;;;4.83;1.47;;;11.90;80.00;;;;;;4993075;28;20606;-68
2023/10/26 02:33:42;;;;;;;5.40;1.20;;;11.90;80.30;;;;;;4989944;28;20193;-68
2023/10/26 02:36:08;;;;;;;2.37;1.27;;;11.80;80.90;;;;;;4988097;28;20241;-68
2023/10/26 02:38:33;;;;;;;2.67;1.00;;;11.70;80.90;;;;;;4991443;28;20550;-69
2023/10/26 02:41:07;;;;;;;3.87;1.13;;;11.70;80.50;;;;;;4989218;28;20427;-68
2023/10/26 02:43:32;;;;;;;1.93;1.10;;;11.70;80.60;;;;;;4994481;28;20701;-68
2023/10/26 02:46:04;;;;;;;2.23;1.53;;;11.70;80.00;;;;;;4988660;28;20454;-68
2023/10/26 02:48:30;;;;;;;1.83;1.00;;;11.80;79.90;;;;;;4993107;28;20601;-68
2023/10/26 02:50:56;;;;;;;1.57;0.93;;;11.70;79.90;;;;;;4991414;28;20425;-68
2023/10/26 02:53:22;;;;;;;2.27;1.20;;;11.70;79.70;;;;;;4994631;28;20957;-68
2023/10/26 02:55:48;;;;;;;2.53;1.20;;;11.70;79.30;;;;;;4988378;28;20215;-68
2023/10/26 02:58:13;;;;;;;1.63;1.10;;;11.60;80.30;;;;;;4993430;28;20413;-68
2023/10/26 03:00:39;;;;;;;1.70;1.10;;;11.50;80.90;;;;;;4992674;28;20585;-67
2023/10/26 03:03:05;;;;;;;3.70;1.23;;;11.40;81.20;;;;;;4991474;28;20563;-68
2023/10/26 03:05:30;;;;;;;3.60;1.43;;;11.40;81.40;;;;;;4990630;28;20211;-68
2023/10/26 03:07:56;;;;;;;1.47;1.10;;;11.40;81.70;;;;;;4992694;28;20667;-68
2023/10/26 03:10:22;;;;;;;3.30;1.30;;;11.20;82.50;;;;;;4993748;28;20186;-68
2023/10/26 03:12:49;;;;;;;2.50;1.30;;;11.10;82.70;;;;;;5007268;28;20179;-68
2023/10/26 03:15:15;;;;;;;5.80;1.30;;;11.00;83.00;;;;;;4990965;28;20414;-68
2023/10/26 03:17:41;;;;;;;3.93;1.10;;;11.00;83.10;;;;;;4991967;28;20425;-69
2023/10/26 03:20:07;;;;;;;2.03;1.03;;;11.10;83.00;;;;;;4990783;28;20763;-69
2023/10/26 03:22:34;;;;;;;1.70;1.10;;;11.10;83.00;;;;;;4989301;28;20218;-68
2023/10/26 03:25:00;;;;;;;2.60;1.23;;;11.00;83.10;;;;;;4992764;28;20470;-68
2023/10/26 03:27:25;;;;;;;4.03;1.17;;;11.10;83.00;;;;;;4986928;28;20450;-68
2023/10/26 03:29:51;;;;;;;2.03;1.00;;;11.10;83.00;;;;;;4988434;28;20183;-68
2023/10/26 03:32:16;;;;;;;2.03;1.40;;;11.10;83.00;;;;;;4992148;28;20190;-69
2023/10/26 03:34:42;;;;;;;1.63;1.10;;;11.10;83.00;;;;;;4992954;28;20193;-69
2023/10/26 03:37:08;;;;;;;3.37;1.40;;;11.00;83.30;;;;;;4985863;28;20351;-67
2023/10/26 03:39:34;;;;;;;2.43;1.30;;;11.10;82.70;;;;;;4992748;28;20616;-68
2023/10/26 03:42:00;;;;;;;1.63;1.17;;;11.20;82.40;;;;;;4991716;28;20429;-69
2023/10/26 03:44:25;;;;;;;3.33;1.30;;;11.20;82.70;;;;;;4991656;28;20970;-67
2023/10/26 03:46:52;;;;;;;3.87;1.50;;;11.10;82.40;;;;;;4985748;28;20213;-69
2023/10/26 03:49:19;;;;;;;3.37;1.70;;;11.10;82.50;;;;;;4991245;28;20206;-67
2023/10/26 03:51:46;;;;;;;3.67;1.47;;;11.00;83.10;;;;;;4986333;28;20423;-67
2023/10/26 03:54:11;;;;;;;2.00;1.60;;;10.90;83.60;;;;;;4992519;28;20441;-68
2023/10/26 03:56:37;;;;;;;3.30;1.63;;;10.80;84.10;;;;;;4989066;28;20461;-68
2023/10/26 03:59:03;;;;;;;1.97;1.37;;;10.60;84.40;;;;;;4988171;28;20445;-68
2023/10/26 04:01:28;;;;;;;2.30;1.43;;;10.60;84.70;;;;;;4991349;28;20186;-69
2023/10/26 04:03:54;;;;;;;1.97;1.50;;;10.60;84.40;;;;;;4992117;28;20206;-68
2023/10/26 04:06:19;;;;;;;2.03;1.30;;;10.70;83.80;;;;;;4987201;28;20210;-67
2023/10/26 04:08:45;;;;;;;1.70;1.40;;;10.80;83.80;;;;;;4990584;28;20240;-68
2023/10/26 04:11:19;;;;;;;5.27;1.83;;;10.80;83.70;;;;;;4993237;28;20187;-69
2023/10/26 04:13:45;;;;;;;1.90;1.20;;;10.80;83.80;;;;;;4994429;28;20182;-68
2023/10/26 04:16:11;;;;;;;2.23;1.60;;;10.80;83.80;;;;;;4991013;28;20887;-68
2023/10/26 04:18:37;;;;;;;7.00;1.57;;;10.70;83.80;;;;;;4993319;28;20187;-68
2023/10/26 04:21:04;;;;;;;3.00;1.53;;;10.70;83.80;;;;;;4991673;28;20418;-69
2023/10/26 04:23:29;;;;;;;4.17;1.43;;;10.70;83.80;;;;;;4991912;28;20218;-68
2023/10/26 04:25:55;;;;;;;3.60;1.33;;;10.70;84.00;;;;;;4986079;28;20472;-68
2023/10/26 04:28:21;;;;;;;2.07;1.37;;;10.70;84.00;;;;;;4990024;28;20187;-68
2023/10/26 04:30:47;;;;;;;4.17;1.57;;;10.70;83.80;;;;;;4991562;28;20204;-70
2023/10/26 04:33:14;;;;;;;3.00;1.50;;;10.70;84.00;;;;;;4991752;28;20442;-68
2023/10/26 04:35:41;;;;;;;2.90;1.47;;;10.60;83.80;;;;;;4986093;28;20454;-68
2023/10/26 04:38:08;;;;;;;3.43;1.80;;;10.60;83.80;;;;;;4990841;28;20421;-69
2023/10/26 04:40:38;;;;;;;3.67;1.80;;;10.60;84.00;;;;;;4991948;28;20460;-68
2023/10/26 04:43:03;;;;;;;4.53;1.80;;;10.60;84.10;;;;;;4988618;28;20509;-69
2023/10/26 04:45:29;;;;;;;2.80;1.90;;;10.60;84.10;;;;;;4987406;28;20533;-68
2023/10/26 04:47:54;;;;;;;3.27;1.67;;;10.60;84.30;;;;;;4988246;28;20190;-68
2023/10/26 04:50:20;;;;;;;2.53;1.50;;;10.50;84.30;;;;;;4992364;28;20190;-68
2023/10/26 04:52:47;;;;;;;3.03;1.40;;;10.50;84.40;;;;;;4991494;28;20190;-68
2023/10/26 04:55:13;;;;;;;3.00;1.30;;;10.50;84.40;;;;;;4988573;28;20206;-67
2023/10/26 04:57:39;;;;;;;2.10;1.30;;;10.50;84.30;;;;;;4981072;28;20430;-69
2023/10/26 05:00:09;;;;;;;3.03;1.70;;;10.50;84.40;;;;;;4991011;28;20502;-69
2023/10/26 05:02:38;;;;;;;3.33;1.40;;;10.50;84.40;;;;;;4991245;28;20229;-70
2023/10/26 05:05:04;;;;;;;3.30;1.50;;;10.50;84.30;;;;;;4990072;28;20413;-68
2023/10/26 05:07:30;;;;;;;2.20;1.57;;;10.50;84.10;;;;;;4984546;28;20437;-69
2023/10/26 05:09:56;;;;;;;5.53;1.60;;;10.50;84.00;;;;;;4985521;28;20516;-67
2023/10/26 05:12:22;;;;;;;2.50;1.30;;;10.60;84.00;;;;;;4991077;28;20426;-68
2023/10/26 05:14:48;;;;;;;4.40;1.73;;;10.60;84.00;;;;;;4991299;28;20424;-69
2023/10/26 05:17:13;;;;;;;2.80;1.97;;;10.60;84.00;;;;;;4984289;28;20769;-68
2023/10/26 05:19:39;;;;;;;2.80;1.57;;;10.60;83.70;;;;;;4990779;28;20267;-68
2023/10/26 05:22:04;;;;;;;2.50;1.67;;;10.60;83.80;;;;;;4990610;28;20187;-70
2023/10/26 05:24:31;;;;;;;4.17;2.13;;;10.50;84.10;;;;;;4988620;28;20652;-68
2023/10/26 05:26:56;;;;;;;3.53;2.00;;;10.50;84.40;;;;;;4985283;28;20211;-69
2023/10/26 05:29:22;;;;;;;6.07;1.83;;;10.40;84.70;;;;;;4992181;28;20421;-70
2023/10/26 05:31:47;;;;;;;3.70;1.50;;;10.40;84.70;;;;;;4993281;28;20278;-70
2023/10/26 05:34:13;;;;;;;4.83;1.77;;;10.30;84.90;;;;;;4995969;28;20190;-70
2023/10/26 05:36:39;;;;;;;5.83;2.00;;;10.30;84.90;;;;;;4988567;28;20214;-68
2023/10/26 05:39:05;;;;;;;3.30;2.17;;;10.30;85.00;;;;;;4985002;28;20322;-69
2023/10/26 05:41:32;;;;;;;3.00;2.07;;;10.30;85.20;;;;;;4990149;28;20438;-70
2023/10/26 05:43:58;;;;;;;7.80;2.10;;;10.30;85.20;;;;;;4990449;28;20469;-70
2023/10/26 05:46:24;;;;;;;4.63;2.17;;;10.30;85.30;;;;;;4982227;28;20519;-69
2023/10/26 05:48:49;;;;;;;4.30;1.90;;;10.30;85.20;;;;;;4986512;28;20196;-69
2023/10/26 05:51:15;;;;;;;4.70;2.10;;;10.30;85.30;;;;;;4990531;28;20181;-69
2023/10/26 05:53:40;;;;;;;3.20;1.87;;;10.30;85.30;;;;;;4990417;28;20678;-68
2023/10/26 05:56:07;;;;;;;4.60;2.50;;;10.40;85.30;;;;;;4986840;28;20210;-69
2023/10/26 05:58:32;;;;;;;7.60;2.20;;;10.40;85.20;;;;;;4991195;28;20190;-69
2023/10/26 06:00:58;;;;;;;3.60;1.60;;;10.50;85.20;;;;;;4992149;28;20460;-70
2023/10/26 06:03:24;;;;;;;2.30;1.50;;;10.50;85.20;;;;;;4993556;28;20297;-70
2023/10/26 06:05:49;;;;;;;5.27;2.83;;;10.60;85.00;;;;;;4985325;28;20265;-69
2023/10/26 06:08:15;;;;;;;3.00;1.83;;;10.60;85.00;;;;;;4989838;28;20175;-69
2023/10/26 06:10:41;;;;;;;6.13;2.50;;;10.70;84.90;;;;;;4990413;28;20216;-69
2023/10/26 06:13:07;;;;;;;3.60;2.30;;;10.70;84.70;;;;;;4993607;28;20421;-69
2023/10/26 06:15:36;;;;;;;4.27;2.30;;;10.70;84.70;;;;;;4988983;28;20470;-67
2023/10/26 06:18:02;;;;;;;3.30;2.23;;;10.70;84.90;;;;;;4990143;28;20428;-68
2023/10/26 06:20:28;;;;;;;3.00;2.00;;;10.70;84.90;;;;;;4991157;28;20564;-69
2023/10/26 06:22:54;;;;;;;5.83;2.00;;;10.80;85.00;;;;;;4988489;28;20552;-69
2023/10/26 06:25:20;;;;;;;3.37;2.57;;;10.80;84.90;;;;;;4986828;28;20229;-69
2023/10/26 06:27:49;;;;;;;3.97;2.10;;;10.80;85.00;;;;;;4990074;28;20426;-67
2023/10/26 06:30:15;;;;;;;4.13;2.33;;;10.90;85.20;;;;;;4989375;28;20279;-68
2023/10/26 06:32:42;;;;;;;4.70;1.73;;;10.90;85.50;;;;;;4988029;28;20426;-68
2023/10/26 06:35:08;;;;;;;4.00;2.80;;;11.00;85.60;;;;;;4987601;28;20425;-67
2023/10/26 06:37:33;;;;;;;3.50;2.07;;;11.00;85.60;;;;;;4987274;28;20449;-68
2023/10/26 06:39:59;;;;;;;5.70;2.17;;;11.00;85.50;;;;;;4991758;28;20426;-68
2023/10/26 06:42:25;;;;;;;5.50;2.80;;;11.00;85.60;;;;;;4991139;28;20218;-68
2023/10/26 06:44:50;;;;;;;5.30;2.80;;;11.00;85.70;;;;;;4988638;28;20932;-68
2023/10/26 06:47:16;;;;;;;11.90;3.17;;;11.00;85.90;;;;;;4988411;28;20588;-69
2023/10/26 06:49:43;;;;;;;7.00;2.57;;;11.00;85.90;;;;;;4990229;28;20529;-69
2023/10/26 06:52:08;;;;;;;12.13;3.17;;;11.00;86.00;;;;;;4989631;28;20421;-69
2023/10/26 06:54:34;;;;;;;9.93;3.20;;;11.00;86.20;;;;;;4992350;28;20525;-68
2023/10/26 06:57:00;;;;;;;8.90;2.63;;;11.00;86.30;;;;;;4989379;28;20769;-69
2023/10/26 06:59:25;;;;;;;9.40;5.20;;;11.00;86.30;;;;;;4996016;28;20189;-69
2023/10/26 07:01:51;;;;;;;3.60;2.10;;;11.00;86.30;;;;;;4998223;28;20206;-69
2023/10/26 07:04:17;;;;;;;5.50;3.37;;;11.00;86.50;;;;;;4996049;28;20189;-68
2023/10/26 07:06:43;;;;;;;10.63;3.57;;;11.10;86.30;;;;;;4990084;28;20458;-68
2023/10/26 07:09:08;;;;;;;10.63;3.23;;;11.10;86.60;;;;;;4994186;28;20820;-68
2023/10/26 07:11:34;;;;;;;11.70;2.97;;;11.20;86.60;;;;;;4994306;28;20185;-67
2023/10/26 07:14:00;;;;;;;11.90;3.03;;;11.30;86.50;;;;;;4994342;28;20282;-68
2023/10/26 07:16:25;;;;;;;3.53;2.40;;;11.40;86.30;;;;;;4986254;28;20684;-68
2023/10/26 07:18:52;;;;;;;4.10;2.17;;;11.50;86.20;;;;;;4986985;28;20525;-69
2023/10/26 07:21:17;;;;;;;6.27;2.67;;;11.50;86.00;;;;;;4993906;28;20190;-67
2023/10/26 07:23:43;;;;;;;5.50;2.37;;;11.50;85.90;;;;;;4993405;28;20503;-68
2023/10/26 07:26:09;;;;;;;4.63;2.37;;;11.60;85.70;;;;;;4990635;28;20821;-69
2023/10/26 07:28:35;;;;;;;7.23;2.50;;;11.70;85.60;;;;;;4992830;28;20187;-68
2023/10/26 07:31:01;;;;;;;6.07;2.60;;;11.70;85.50;;;;;;4993668;28;20428;-68
2023/10/26 07:33:26;;;;;;;7.83;3.20;;;11.60;85.50;;;;;;4992542;28;20186;-69
2023/10/26 07:35:55;;;;;;;4.20;2.53;;;11.60;85.60;;;;;;4984747;28;20211;-70
2023/10/26 07:38:21;;;;;;;4.63;2.60;;;11.60;85.60;;;;;;4985645;28;20194;-68
2023/10/26 07:40:53;;;;;;;5.67;3.00;;;11.60;85.90;;;;;;4993707;28;20785;-69
2023/10/26 07:43:20;;;;;;;5.60;3.00;;;11.70;86.00;;;;;;4991075;28;20214;-70
2023/10/26 07:45:51;;;;;;;4.27;2.77;;;11.70;86.00;;;;;;4985998;28;20481;-68
2023/10/26 07:48:17;;;;;;;6.27;3.13;;;11.70;86.20;;;;;;4993161;28;20860;-69
2023/10/26 07:50:42;;;;;;;7.13;3.53;;;11.80;86.30;;;;;;4994593;28;20430;-68
2023/10/26 07:53:08;;;;;;;4.43;2.30;;;12.00;86.30;;;;;;4996626;28;20249;-69
2023/10/26 07:55:34;;;;;;;2.83;2.20;;;12.10;85.50;;;;;;4985415;28;20235;-70
2023/10/26 07:58:00;;;;;;;5.77;1.67;;;12.20;84.60;;;;;;4994615;28;20195;-69
2023/10/26 08:00:25;;;;;;;5.60;1.43;;;12.30;84.30;;;;;;4998199;28;20218;-69
2023/10/26 08:02:51;;;;;;;7.53;2.37;;;12.40;84.30;;;;;;4996742;28;20488;-69
2023/10/26 08:05:17;;;;;;;7.00;2.50;;;12.40;84.00;;;;;;4994605;28;20648;-70
2023/10/26 08:07:44;;;;;;;11.73;2.73;;;12.50;84.10;;;;;;4993559;28;20198;-69
2023/10/26 08:10:10;;;;;;;4.77;2.13;;;12.60;84.10;;;;;;5000131;28;20190;-70
2023/10/26 08:12:35;;;;;;;3.00;1.80;;;12.70;83.80;;;;;;4996709;28;20437;-69
2023/10/26 08:15:04;;;;;;;3.50;1.70;;;12.80;83.40;;;;;;4997275;28;20211;-68
2023/10/26 08:17:34;;;;;;;7.43;2.27;;;12.80;83.40;;;;;;4994224;28;20489;-68
2023/10/26 08:20:01;;;;;;;6.30;1.90;;;12.90;83.10;;;;;;4995174;28;20410;-69
2023/10/26 08:22:28;;;;;;;3.60;1.57;;;12.80;83.10;;;;;;4992455;28;20466;-70
2023/10/26 08:24:53;;;;;;;2.17;1.40;;;12.80;83.30;;;;;;4995502;28;20425;-69
2023/10/26 08:27:19;;;;;;;8.43;1.87;;;12.80;83.40;;;;;;4991410;28;20819;-68
2023/10/26 08:29:44;;;;;;;3.67;2.00;;;12.80;83.60;;;;;;4997806;28;20845;-67
2023/10/26 08:32:10;;;;;;;4.93;2.57;;;12.90;83.60;;;;;;4998154;28;20209;-69
2023/10/26 08:34:36;;;;;;;5.10;2.03;;;12.80;83.40;;;;;;4992126;28;20179;-70
2023/10/26 08:37:02;;;;;;;4.50;2.00;;;12.80;83.70;;;;;;4983974;28;20268;-69
2023/10/26 08:39:28;;;;;;;4.57;2.20;;;12.80;83.80;;;;;;4992820;28;20442;-69
2023/10/26 08:41:58;;;;;;;5.47;1.80;;;12.90;83.70;;;;;;4994360;28;20194;-68
2023/10/26 08:44:26;;;;;;;9.30;2.80;;;13.00;83.60;;;;;;4987469;28;20660;-67
2023/10/26 08:46:57;;;;;;;2.87;1.97;;;13.10;83.60;;;;;;4983427;28;20884;-69
2023/10/26 08:49:28;;;;;;;6.60;1.80;;;13.10;83.60;;;;;;4991566;28;20418;-69
2023/10/26 08:51:54;;;;;;;2.37;1.83;;;13.00;83.30;;;;;;4991497;28;20441;-68
2023/10/26 08:54:20;;;;;;;2.43;1.70;;;13.10;83.40;;;;;;4987041;28;20966;-67
2023/10/26 08:56:46;;;;;;;1.93;1.40;;;13.20;83.40;;;;;;4984253;28;20552;-68
2023/10/26 08:59:13;;;;;;;2.80;1.87;;;13.40;83.10;;;;;;4991679;28;20419;-67
2023/10/26 09:01:39;;;;;;;2.60;1.70;;;13.50;82.50;;;;;;4984442;28;20199;-70
2023/10/26 09:04:09;;;;;;;2.90;1.63;;;13.50;82.20;;;;;;4990980;28;20691;-68
2023/10/26 09:06:48;;;;;;;2.80;1.60;;;13.60;81.90;;;;;;4984770;28;20221;-69
2023/10/26 09:09:15;;;;;;;5.00;1.70;;;13.60;81.90;;;;;;4991105;28;20452;-69
2023/10/26 09:11:41;;;;;;;2.80;1.53;;;13.70;82.20;;;;;;4991176;28;20939;-69
2023/10/26 09:14:20;;;;;;;5.43;1.73;;;13.80;82.10;;;;;;4991226;28;20428;-69
2023/10/26 09:16:47;;;;;;;1.93;1.33;;;13.80;81.70;;;;;;4985237;28;20357;-69
2023/10/26 09:19:14;;;;;;;3.90;1.63;;;13.80;81.90;;;;;;4991088;28;20516;-70
2023/10/26 09:21:57;;;;;;;2.60;1.73;;;14.00;81.90;;;;;;4991164;28;20430;-69
2023/10/26 09:24:25;;;;;;;1.97;1.20;;;13.90;82.20;;;;;;4986258;28;20442;-67
2023/10/26 09:26:55;;;;;;;2.50;1.30;;;13.80;82.40;;;;;;4987766;28;20469;-69
2023/10/26 09:29:34;;;;;;;1.87;1.50;;;13.90;82.50;;;;;;4984051;28;20600;-70
2023/10/26 09:31:59;;;;;;;2.60;1.40;;;13.80;82.70;;;;;;4991255;28;20441;-67
2023/10/26 09:34:26;;;;;;;4.60;1.40;;;13.80;83.00;;;;;;4989039;28;20434;-69
2023/10/26 09:36:59;;;;;;;3.57;1.90;;;13.70;83.00;;;;;;4987307;28;20218;-69
2023/10/26 09:39:28;;;;;;;3.33;1.90;;;13.70;83.60;;;;;;4995756;28;20479;-68
2023/10/26 09:41:55;;;;;;;3.43;2.27;;;13.80;83.80;;;;;;4990822;28;20452;-68
2023/10/26 09:44:21;;;;;;;6.00;1.90;;;13.80;84.00;;;;;;4991500;28;20789;-68
2023/10/26 09:46:47;;;;;;;6.13;1.90;;;13.70;84.00;;;;;;4983704;28;20478;-69
2023/10/26 09:49:13;;;;;;;2.70;1.63;;;13.60;84.10;;;;;;4992177;28;20191;-69
2023/10/26 09:51:39;;;;;;;4.27;1.70;;;13.50;84.30;;;;;;4992926;28;20771;-67
2023/10/26 09:54:06;;;;;;;3.30;1.97;;;13.50;84.70;;;;;;4993472;28;20222;-68
2023/10/26 09:56:33;;;;;;;3.83;2.30;;;13.50;84.90;;;;;;4983802;28;20841;-68
2023/10/26 09:58:59;;;;;;;2.53;1.90;;;13.30;85.20;;;;;;4990698;28;20426;-67
2023/10/26 10:01:42;;;;;;;3.30;1.90;;;13.30;85.30;;;;;;4988114;28;20436;-69
2023/10/26 10:04:09;;;;;;;4.67;2.67;;;13.30;85.60;;;;;;4990282;28;20469;-69
2023/10/26 10:06:46;;;;;;;4.10;2.27;;;13.20;85.70;;;;;;4982245;28;20461;-68
2023/10/26 10:09:12;;;;;;;3.20;2.07;;;13.20;86.00;;;;;;4988968;28;20961;-69
2023/10/26 10:11:38;;;;;;;2.80;1.73;;;13.20;86.50;;;;;;4985048;28;20418;-69
2023/10/26 10:14:04;;;;;;;3.43;2.13;;;13.30;86.60;;;;;;4989992;28;20421;-69
2023/10/26 10:16:36;;;;;;;4.90;3.40;;;13.30;86.60;;;;;;4983384;28;20496;-69
2023/10/26 10:19:20;;;;;;;7.63;3.87;;;13.20;86.50;;;;;;4987765;28;20425;-69
2023/10/26 10:21:48;;;;;;;6.83;4.70;;;13.10;86.30;;;;;;4986746;28;20418;-70
2023/10/26 10:24:44;;;;;;;10.70;5.13;;;13.00;86.60;;;;;;4988327;28;20520;-69
2023/10/26 10:27:15;;;;;;;7.20;4.20;;;12.90;86.80;;;;;;4985981;28;20453;-70
2023/10/26 10:29:42;;;;;;;6.63;4.57;;;13.00;87.00;;;;;;4994224;28;20449;-68
2023/10/26 10:32:10;;;;;;;5.70;4.20;;;13.00;87.30;;;;;;4993110;28;20457;-70
2023/10/26 10:34:44;;;;;;;7.57;5.00;;;13.00;87.30;;;;;;4992507;28;20461;-69
2023/10/26 10:37:23;;;;;;;11.30;4.90;;;13.00;87.30;;;;;;4988145;28;20484;-70
2023/10/26 10:40:10;;;;;;;8.07;4.67;;;12.90;87.40;;;;;;4988896;28;20432;-69
2023/10/26 10:42:41;;;;;;;6.30;4.90;;;12.80;87.70;;;;;;4992845;28;20484;-69
2023/10/26 10:45:13;;;;;;;8.80;6.17;;;12.70;88.00;;;;;;4993201;28;20460;-69
2023/10/26 10:47:42;;;;;;;10.27;6.03;;;12.70;88.10;;;;;;4992396;28;20466;-71
2023/10/26 10:50:18;;;;;;;12.03;5.70;;;12.70;88.30;;;;;;4993117;28;20457;-70
2023/10/26 10:52:44;;;;;;;8.40;5.00;;;12.80;88.60;;;;;;4993846;28;20445;-70
2023/10/26 10:55:10;;;;;;;6.73;4.50;;;12.90;88.70;;;;;;4991808;28;20426;-68
2023/10/26 10:57:58;;;;;;;8.73;5.33;;;13.00;88.90;;;;;;4993299;28;20453;-68
2023/10/26 11:00:27;;;;;;;10.20;4.93;;;13.10;89.00;;;;;;4989543;28;20237;-71
2023/10/26 11:02:56;;;;;;;8.73;4.57;;;13.20;89.20;;;;;;4994849;28;20481;-69
2023/10/26 11:05:34;;;;;;;6.00;4.37;;;13.30;89.00;;;;;;4990812;28;20456;-69
2023/10/26 11:07:59;;;;;;;7.53;4.83;;;13.40;88.40;;;;;;4991500;28;20420;-68
2023/10/26 11:10:25;;;;;;;5.50;4.00;;;13.50;87.70;;;;;;4993753;28;20803;-69
2023/10/26 11:12:51;;;;;;;7.30;4.10;;;13.40;87.00;;;;;;4987998;28;20217;-68
2023/10/26 11:15:17;;;;;;;5.30;4.43;;;13.40;86.90;;;;;;4990354;28;20188;-69
2023/10/26 11:17:43;;;;;;;4.70;3.70;;;13.40;86.90;;;;;;4987867;28;20194;-68
2023/10/26 11:20:39;;;;;;;8.03;5.13;;;13.60;86.90;;;;;;4991914;28;20422;-70
2023/10/26 11:23:07;;;;;;;7.73;4.13;;;13.80;87.00;;;;;;4992678;28;20230;-69
2023/10/26 11:25:33;;;;;;;5.43;3.57;;;14.00;86.80;;;;;;4987781;28;20477;-69
2023/10/26 11:27:59;;;;;;;6.37;4.23;;;14.10;86.30;;;;;;4990787;28;21200;-68
2023/10/26 11:30:24;;;;;;;7.43;4.77;;;14.20;86.00;;;;;;4993165;28;20426;-69
2023/10/26 11:32:50;;;;;;;12.87;5.17;;;14.30;85.70;;;;;;4993028;28;20698;-68
2023/10/26 11:35:16;;;;;;;8.27;5.53;;;14.20;85.00;;;;;;4989625;28;20249;-69
2023/10/26 11:37:45;;;;;;;8.33;4.33;;;14.20;84.90;;;;;;4989968;28;20603;-70
2023/10/26 11:40:13;;;;;;;7.57;4.50;;;14.00;85.00;;;;;;4992189;28;20423;-69
2023/10/26 11:42:53;;;;;;;7.70;4.73;;;14.00;84.90;;;;;;4990699;28;20982;-69
2023/10/26 11:45:21;;;;;;;6.77;4.70;;;14.10;85.20;;;;;;4988848;28;20422;-69
2023/10/26 11:47:54;;;;;;;5.87;3.90;;;14.10;85.00;;;;;;4991761;28;20476;-69
2023/10/26 11:50:27;;;;;;;8.03;4.40;;;14.00;84.90;;;;;;4993239;28;20456;-68
2023/10/26 11:52:55;;;;;;;5.90;4.57;;;14.10;85.50;;;;;;4991355;28;20515;-69
2023/10/26 11:55:22;;;;;;;4.60;4.20;;;14.30;85.50;;;;;;4988146;28;20493;-68
2023/10/26 11:57:49;;;;;;;7.80;4.90;;;14.40;85.20;;;;;;4992061;28;20422;-69
2023/10/26 12:00:16;;;;;;;6.03;3.80;;;14.60;85.00;;;;;;4991691;28;20489;-69
2023/10/26 12:02:42;;;;;;;4.70;3.37;;;14.80;84.90;;;;;;4991057;28;20505;-70
2023/10/26 12:05:11;;;;;;;5.30;3.10;;;15.00;84.30;;;;;;4990978;28;20503;-69
2023/10/26 12:07:36;;;;;;;5.87;3.90;;;15.10;83.60;;;;;;4991606;28;20423;-68
2023/10/26 12:10:03;;;;;;;4.17;2.80;;;15.10;83.30;;;;;;4992381;28;20797;-68
2023/10/26 12:12:29;;;;;;;5.70;3.53;;;15.20;82.80;;;;;;4992975;28;20190;-68
2023/10/26 12:14:55;;;;;;;6.53;3.80;;;15.20;82.80;;;;;;4988814;28;20544;-68
2023/10/26 12:17:21;;;;;;;3.30;2.87;;;15.40;82.80;;;;;;4988596;28;20459;-69
2023/10/26 12:19:46;;;;;;;5.70;3.57;;;15.70;82.20;;;;;;4992432;28;20190;-70
2023/10/26 12:22:12;;;;;;;4.93;3.30;;;15.80;81.70;;;;;;4988949;28;20655;-70
2023/10/26 12:24:37;;;;;;;3.60;2.70;;;15.90;81.10;;;;;;4991558;28;20190;-67
2023/10/26 12:27:03;;;;;;;3.90;2.97;;;16.00;80.90;;;;;;4986286;28;20226;-67
2023/10/26 12:29:29;;;;;;;4.67;3.60;;;16.40;80.90;;;;;;4991652;28;20267;-69
2023/10/26 12:31:54;;;;;;;5.10;3.03;;;16.60;78.90;;;;;;4992698;28;20196;-69
2023/10/26 12:34:20;;;;;;;5.00;3.37;;;16.20;79.00;;;;;;4989425;28;20609;-69
2023/10/26 12:36:46;;;;;;;4.30;3.30;;;16.30;80.00;;;;;;4984867;28;20213;-68
2023/10/26 12:39:12;;;;;;;4.03;3.00;;;16.30;80.00;;;;;;4988860;28;20421;-68
2023/10/26 12:41:37;;;;;;;4.30;2.97;;;16.40;80.50;;;;;;4988711;28;20189;-68
2023/10/26 12:44:04;;;;;;;5.20;3.20;;;16.60;80.30;;;;;;4994512;28;20284;-69